Time;durP1;ratioP1;P1;durP2;ratioP2;P2;SDS_P1;SDS_P2;PMS_P1;PMS_P2;Temp;Humidity;BMP_temperature;BMP_pressure;BME280_temperature;BME280_humidity;BME280_pressure;Samples;Min_cycle;Max_cycle;Signal;HPM_P1;HPM_P2
2023/12/21 00:01:57;;;;;;;22.17;8.83;;;;;;;;;;5025400;28;20080;-96
2023/12/21 00:04:25;;;;;;;30.75;9.93;;;;;;;;;;5026364;28;20077;-96
2023/12/21 00:06:51;;;;;;;23.42;9.80;;;;;;;;;;5026676;28;20009;-96
2023/12/21 00:09:16;;;;;;;24.20;8.97;;;;;;;;;;5025932;28;20052;-96
2023/12/21 00:11:51;;;;;;;22.67;8.93;;;;;;;;;;5024411;28;20022;-96
2023/12/21 00:14:16;;;;;;;19.75;8.50;;;;;;;;;;5005863;28;20030;-96
2023/12/21 00:16:43;;;;;;;20.60;8.60;;;;;;;;;;5021695;28;20034;-96
2023/12/21 00:19:12;;;;;;;26.10;8.82;;;;;;;;;;5009280;28;20072;-96
2023/12/21 00:21:40;;;;;;;25.55;9.35;;;;;;;;;;5024801;28;20045;-96
2023/12/21 00:24:08;;;;;;;21.92;9.18;;;;;;;;;;5023956;28;20010;-96
2023/12/21 00:26:33;;;;;;;24.02;9.68;;;;;;;;;;5026177;28;20022;-96
2023/12/21 00:28:59;;;;;;;19.57;8.87;;;;;;;;;;4999877;28;20084;-96
2023/12/21 00:31:25;;;;;;;22.08;8.63;;;;;;;;;;4994539;28;20038;-96
2023/12/21 00:33:51;;;;;;;25.20;8.87;;;;;;;;;;4994065;28;20073;-96
2023/12/21 00:36:18;;;;;;;25.48;9.00;;;;;;;;;;5021299;28;20033;-96
2023/12/21 00:38:44;;;;;;;29.95;10.27;;;;;;;;;;5030350;28;20044;-96
2023/12/21 00:41:10;;;;;;;21.97;9.60;;;;;;;;;;5018753;28;20435;-96
2023/12/21 00:43:43;;;;;;;25.30;9.27;;;;;;;;;;5031891;28;20082;-96
2023/12/21 00:46:09;;;;;;;28.10;9.75;;;;;;;;;;5030631;28;20033;-96
2023/12/21 00:48:34;;;;;;;24.65;9.25;;;;;;;;;;5034497;28;20033;-96
2023/12/21 00:51:03;;;;;;;21.43;10.00;;;;;;;;;;5028824;28;20114;-96
2023/12/21 00:53:32;;;;;;;25.98;10.32;;;;;;;;;;5031529;28;20041;-96
2023/12/21 00:55:57;;;;;;;31.48;11.38;;;;;;;;;;5028431;28;20033;-96
2023/12/21 00:58:25;;;;;;;24.37;11.87;;;;;;;;;;5028938;28;20034;-96
2023/12/21 01:00:51;;;;;;;30.05;12.10;;;;;;;;;;5029291;28;20081;-96
2023/12/21 01:03:19;;;;;;;27.33;11.77;;;;;;;;;;5013779;28;20026;-96
2023/12/21 01:05:46;;;;;;;23.42;11.43;;;;;;;;;;5029700;28;20152;-96
2023/12/21 01:08:12;;;;;;;28.67;11.30;;;;;;;;;;5029730;28;20071;-96
2023/12/21 01:10:38;;;;;;;28.75;11.68;;;;;;;;;;5024221;28;20030;-96
2023/12/21 01:13:04;;;;;;;17.43;10.73;;;;;;;;;;5027631;28;20021;-96
2023/12/21 01:15:31;;;;;;;28.15;10.73;;;;;;;;;;5029839;28;20089;-96
2023/12/21 01:17:56;;;;;;;26.05;11.57;;;;;;;;;;5005208;28;20026;-96
2023/12/21 01:20:26;;;;;;;27.23;12.07;;;;;;;;;;5010800;28;20057;-96
2023/12/21 01:22:51;;;;;;;29.98;11.52;;;;;;;;;;5022357;28;20038;-96
2023/12/21 01:25:16;;;;;;;29.00;11.63;;;;;;;;;;5010393;28;20045;-96
2023/12/21 01:27:44;;;;;;;29.17;11.35;;;;;;;;;;5010228;28;20030;-96
2023/12/21 01:30:09;;;;;;;25.83;11.13;;;;;;;;;;5011865;28;20040;-96
2023/12/21 01:32:36;;;;;;;33.90;11.65;;;;;;;;;;5020762;28;20029;-96
2023/12/21 01:35:13;;;;;;;32.53;11.33;;;;;;;;;;4992407;28;20097;-96
2023/12/21 01:37:38;;;;;;;25.85;9.63;;;;;;;;;;5014505;28;20041;-96
2023/12/21 01:40:04;;;;;;;27.50;10.83;;;;;;;;;;5013063;28;20025;-96
2023/12/21 01:42:30;;;;;;;31.05;11.18;;;;;;;;;;5031972;28;20026;-96
2023/12/21 01:45:00;;;;;;;25.63;10.03;;;;;;;;;;5032000;28;20045;-96
2023/12/21 01:47:26;;;;;;;26.45;9.75;;;;;;;;;;5013372;28;20025;-96
2023/12/21 01:49:53;;;;;;;28.10;10.18;;;;;;;;;;5030271;28;20110;-96
2023/12/21 01:52:19;;;;;;;26.35;11.07;;;;;;;;;;5035059;28;20014;-96
2023/12/21 01:54:44;;;;;;;26.60;10.68;;;;;;;;;;5025710;28;20030;-96
2023/12/21 01:57:10;;;;;;;25.37;11.07;;;;;;;;;;5000883;28;20006;-96
2023/12/21 01:59:38;;;;;;;25.80;11.93;;;;;;;;;;5020681;28;20082;-96
2023/12/21 02:02:05;;;;;;;30.73;12.70;;;;;;;;;;5018765;28;20083;-96
2023/12/21 02:04:31;;;;;;;33.47;11.95;;;;;;;;;;5018072;28;20054;-96
2023/12/21 02:06:57;;;;;;;30.50;12.90;;;;;;;;;;5023649;28;20013;-96
2023/12/21 02:09:23;;;;;;;32.78;12.48;;;;;;;;;;5037954;28;20029;-96
2023/12/21 02:11:50;;;;;;;29.05;12.50;;;;;;;;;;5025018;28;20026;-96
2023/12/21 02:14:15;;;;;;;34.03;13.13;;;;;;;;;;5030396;28;20030;-96
2023/12/21 02:16:48;;;;;;;35.80;13.60;;;;;;;;;;5020152;28;20030;-96
2023/12/21 02:19:14;;;;;;;38.50;13.40;;;;;;;;;;5016286;28;20258;-95
2023/12/21 02:21:41;;;;;;;40.38;15.10;;;;;;;;;;4995114;28;20018;-93
2023/12/21 02:24:13;;;;;;;31.85;13.77;;;;;;;;;;5014194;28;20010;-93
2023/12/21 02:26:39;;;;;;;39.00;15.00;;;;;;;;;;4994739;28;20090;-94
2023/12/21 02:29:04;;;;;;;38.93;13.87;;;;;;;;;;5012305;28;20041;-94
2023/12/21 02:31:29;;;;;;;30.20;13.73;;;;;;;;;;5014733;28;20014;-93
2023/12/21 02:33:54;;;;;;;33.87;13.93;;;;;;;;;;5025698;28;20013;-92
2023/12/21 02:36:19;;;;;;;30.47;13.67;;;;;;;;;;5011667;28;20030;-94
2023/12/21 02:38:45;;;;;;;37.33;14.30;;;;;;;;;;5011681;28;20026;-93
2023/12/21 02:41:10;;;;;;;38.67;12.60;;;;;;;;;;5032185;28;20506;-94
2023/12/21 02:43:35;;;;;;;41.80;14.70;;;;;;;;;;5032439;28;20139;-94
2023/12/21 02:46:00;;;;;;;31.80;14.03;;;;;;;;;;5031007;28;20094;-92
2023/12/21 02:48:26;;;;;;;37.10;13.47;;;;;;;;;;5012198;28;20033;-94
2023/12/21 02:50:51;;;;;;;43.33;14.77;;;;;;;;;;5011864;28;20049;-94
2023/12/21 02:53:16;;;;;;;37.87;15.00;;;;;;;;;;5010435;28;20265;-94
2023/12/21 02:55:41;;;;;;;41.80;13.90;;;;;;;;;;5014097;28;20064;-94
2023/12/21 02:58:06;;;;;;;31.43;13.63;;;;;;;;;;5032914;28;20033;-93
2023/12/21 03:00:33;;;;;;;35.97;12.67;;;;;;;;;;5032628;28;20006;-95
2023/12/21 03:02:58;;;;;;;41.85;13.40;;;;;;;;;;5010533;28;20027;-93
2023/12/21 03:05:23;;;;;;;42.57;12.97;;;;;;;;;;5003375;28;20064;-93
2023/12/21 03:07:55;;;;;;;39.47;12.93;;;;;;;;;;5006981;28;20081;-96
2023/12/21 03:10:20;;;;;;;32.30;12.00;;;;;;;;;;5013445;28;20022;-96
2023/12/21 03:12:48;;;;;;;36.37;12.20;;;;;;;;;;5028597;28;20343;-96
2023/12/21 03:15:39;;;;;;;40.07;13.03;;;;;;;;;;5026028;28;20018;-96
2023/12/21 03:18:05;;;;;;;32.00;12.50;;;;;;;;;;5015498;28;20282;-96
2023/12/21 03:20:31;;;;;;;36.60;10.43;;;;;;;;;;5033132;28;20098;-96
2023/12/21 03:22:56;;;;;;;38.53;10.67;;;;;;;;;;5034408;28;20048;-96
2023/12/21 03:25:22;;;;;;;36.75;11.13;;;;;;;;;;5029398;28;20017;-96
2023/12/21 03:27:49;;;;;;;36.40;10.93;;;;;;;;;;5034391;28;20033;-96
2023/12/21 03:30:16;;;;;;;32.07;10.77;;;;;;;;;;5029276;28;20019;-96
2023/12/21 03:32:42;;;;;;;37.92;11.10;;;;;;;;;;5034346;28;20045;-95
2023/12/21 03:35:11;;;;;;;34.55;11.18;;;;;;;;;;5033715;28;20124;-96
2023/12/21 03:37:47;;;;;;;37.95;10.05;;;;;;;;;;5017733;28;20049;-96
2023/12/21 03:40:12;;;;;;;33.22;10.25;;;;;;;;;;5025094;28;20025;-96
2023/12/21 03:42:51;;;;;;;32.23;9.83;;;;;;;;;;5006592;28;20041;-96
2023/12/21 03:45:17;;;;;;;26.30;9.02;;;;;;;;;;5027433;28;20029;-95
2023/12/21 03:47:48;;;;;;;29.87;8.80;;;;;;;;;;5033298;28;20001;-96
2023/12/21 03:50:15;;;;;;;31.65;8.55;;;;;;;;;;5035177;28;20014;-96
2023/12/21 03:52:40;;;;;;;37.17;9.38;;;;;;;;;;5018666;28;20053;-95
2023/12/21 03:55:07;;;;;;;35.77;8.70;;;;;;;;;;5018688;28;20021;-96
2023/12/21 03:57:33;;;;;;;34.55;10.32;;;;;;;;;;5016704;28;20021;-96
2023/12/21 04:00:08;;;;;;;34.23;10.73;;;;;;;;;;4999429;28;20082;-96
2023/12/21 04:02:36;;;;;;;41.97;9.23;;;;;;;;;;5000065;28;20094;-96
2023/12/21 04:05:22;;;;;;;34.20;9.35;;;;;;;;;;5016071;28;20065;-96
2023/12/21 04:08:08;;;;;;;27.90;8.80;;;;;;;;;;5014846;28;20018;-96
2023/12/21 04:10:39;;;;;;;39.35;9.77;;;;;;;;;;5014368;28;20038;-96
2023/12/21 04:13:15;;;;;;;42.70;10.52;;;;;;;;;;5012929;28;20029;-96
2023/12/21 04:15:44;;;;;;;39.63;9.80;;;;;;;;;;5012276;28;20028;-96
2023/12/21 04:18:20;;;;;;;36.63;10.67;;;;;;;;;;5019759;28;20294;-96
2023/12/21 04:20:46;;;;;;;33.17;9.35;;;;;;;;;;5013462;28;20034;-96
2023/12/21 04:23:11;;;;;;;34.47;10.97;;;;;;;;;;5016582;28;20025;-96
2023/12/21 04:25:48;;;;;;;38.23;11.17;;;;;;;;;;5036321;28;20256;-96
2023/12/21 04:28:14;;;;;;;34.28;11.55;;;;;;;;;;5033223;28;20002;-96
2023/12/21 04:31:06;;;;;;;48.23;12.30;;;;;;;;;;5000777;28;20381;-96
2023/12/21 04:33:53;;;;;;;36.72;11.57;;;;;;;;;;5035537;28;20014;-96
2023/12/21 04:36:22;;;;;;;42.60;12.13;;;;;;;;;;5014710;28;20042;-96
2023/12/21 04:41:59;;;;;;;45.08;12.52;;;;;;;;;;5016903;28;20086;-96
2023/12/21 04:44:28;;;;;;;38.42;12.98;;;;;;;;;;5012856;28;20046;-96
2023/12/21 04:46:59;;;;;;;45.05;13.00;;;;;;;;;;5029928;28;20132;-96
2023/12/21 04:52:36;;;;;;;39.57;12.33;;;;;;;;;;5141683;23;20050;-96
2023/12/21 04:55:15;;;;;;;39.58;13.50;;;;;;;;;;4984461;28;20099;-96
2023/12/21 04:57:44;;;;;;;42.78;12.38;;;;;;;;;;5014346;28;20041;-96
2023/12/21 05:00:10;;;;;;;43.33;13.07;;;;;;;;;;5002769;28;20068;-96
2023/12/21 05:02:35;;;;;;;32.35;12.55;;;;;;;;;;4966864;28;20051;-96
2023/12/21 05:05:12;;;;;;;41.73;13.00;;;;;;;;;;5007168;28;20034;-96
2023/12/21 05:07:40;;;;;;;36.67;11.50;;;;;;;;;;5007837;28;20270;-96
2023/12/21 05:10:07;;;;;;;32.00;10.18;;;;;;;;;;5008647;28;20026;-96
2023/12/21 05:12:33;;;;;;;33.43;11.40;;;;;;;;;;4991947;28;20019;-96
2023/12/21 05:15:02;;;;;;;34.85;10.95;;;;;;;;;;5010475;28;20034;-96
2023/12/21 05:17:29;;;;;;;32.10;10.45;;;;;;;;;;5008320;28;20015;-96
2023/12/21 05:19:54;;;;;;;39.80;10.90;;;;;;;;;;4991360;28;20497;-96
2023/12/21 05:22:21;;;;;;;39.30;11.27;;;;;;;;;;5007871;28;20022;-96
2023/12/21 05:24:46;;;;;;;29.50;10.27;;;;;;;;;;5005329;28;20022;-96
2023/12/21 05:27:11;;;;;;;32.53;9.57;;;;;;;;;;5004789;28;20033;-96
2023/12/21 05:29:36;;;;;;;33.30;10.37;;;;;;;;;;5003774;28;20029;-96
2023/12/21 05:32:02;;;;;;;27.73;9.90;;;;;;;;;;5001052;28;20022;-96
2023/12/21 05:34:27;;;;;;;24.83;7.82;;;;;;;;;;4979101;28;20085;-96
2023/12/21 05:36:52;;;;;;;24.00;8.53;;;;;;;;;;4997276;28;20034;-96
2023/12/21 05:39:18;;;;;;;25.07;8.03;;;;;;;;;;4970459;28;20073;-96
2023/12/21 05:41:43;;;;;;;22.23;7.32;;;;;;;;;;4985283;28;20497;-96
2023/12/21 05:44:10;;;;;;;24.73;8.10;;;;;;;;;;4987252;28;20019;-96
2023/12/21 05:46:45;;;;;;;22.35;6.97;;;;;;;;;;5008961;28;20025;-96
2023/12/21 05:49:18;;;;;;;24.77;7.37;;;;;;;;;;5005687;28;20402;-96
2023/12/21 05:51:44;;;;;;;18.20;6.18;;;;;;;;;;4996938;28;20005;-96
2023/12/21 05:54:11;;;;;;;23.98;7.03;;;;;;;;;;5012617;28;20030;-96
2023/12/21 05:56:52;;;;;;;17.63;6.00;;;;;;;;;;4995731;28;20030;-96
2023/12/21 05:59:23;;;;;;;18.17;4.88;;;;;;;;;;5012000;28;20041;-96
2023/12/21 06:01:54;;;;;;;19.80;5.28;;;;;;;;;;5009515;28;20145;-96
2023/12/21 06:07:25;;;;;;;19.65;5.53;;;;;;;;;;5013405;28;20049;-96
2023/12/21 06:09:51;;;;;;;19.97;5.27;;;;;;;;;;4998463;28;20091;-96
2023/12/21 06:12:17;;;;;;;16.75;5.53;;;;;;;;;;4978067;28;20094;-94
2023/12/21 06:14:42;;;;;;;17.33;5.30;;;;;;;;;;4962793;28;20530;-95
2023/12/21 06:17:09;;;;;;;17.40;6.10;;;;;;;;;;4977179;28;20026;-95
2023/12/21 06:19:35;;;;;;;19.80;6.17;;;;;;;;;;4975368;28;20022;-93
2023/12/21 06:22:01;;;;;;;21.40;6.73;;;;;;;;;;4979432;28;20015;-96
2023/12/21 06:24:26;;;;;;;24.38;7.40;;;;;;;;;;4968333;28;20034;-91
2023/12/21 06:26:51;;;;;;;19.43;7.63;;;;;;;;;;4992099;28;20026;-91
2023/12/21 06:29:16;;;;;;;25.50;7.80;;;;;;;;;;4992989;28;20034;-95
2023/12/21 06:31:42;;;;;;;27.43;8.30;;;;;;;;;;4999205;28;20652;-90
2023/12/21 06:34:07;;;;;;;26.33;9.77;;;;;;;;;;4989382;28;20101;-93
2023/12/21 06:36:32;;;;;;;20.73;8.27;;;;;;;;;;4972806;28;20566;-93
2023/12/21 06:38:58;;;;;;;21.80;9.03;;;;;;;;;;4995892;28;20478;-93
2023/12/21 06:41:23;;;;;;;23.33;8.93;;;;;;;;;;4998068;28;20705;-92
2023/12/21 06:43:48;;;;;;;25.70;9.13;;;;;;;;;;5010548;28;20022;-92
2023/12/21 06:46:14;;;;;;;21.53;8.50;;;;;;;;;;5005905;28;20038;-92
2023/12/21 06:48:44;;;;;;;26.13;8.67;;;;;;;;;;4996357;28;20058;-93
2023/12/21 06:51:09;;;;;;;23.00;8.23;;;;;;;;;;4996212;28;20461;-93
2023/12/21 06:53:34;;;;;;;21.93;8.67;;;;;;;;;;4981988;28;20030;-92
2023/12/21 06:56:00;;;;;;;20.47;7.30;;;;;;;;;;4993268;28;20602;-92
2023/12/21 06:58:27;;;;;;;26.08;8.18;;;;;;;;;;4993611;28;20022;-92
2023/12/21 07:00:52;;;;;;;24.05;7.10;;;;;;;;;;4991237;28;20026;-92
2023/12/21 07:03:18;;;;;;;18.23;6.87;;;;;;;;;;4988253;28;20014;-92
2023/12/21 07:05:43;;;;;;;21.67;6.77;;;;;;;;;;5005081;28;20084;-91
2023/12/21 07:08:08;;;;;;;22.13;7.10;;;;;;;;;;5005938;28;20065;-93
2023/12/21 07:10:33;;;;;;;18.83;7.00;;;;;;;;;;4987994;28;20082;-92
2023/12/21 07:12:59;;;;;;;24.10;6.63;;;;;;;;;;4989565;28;20037;-92
2023/12/21 07:15:24;;;;;;;20.70;6.27;;;;;;;;;;4978401;28;20046;-91
2023/12/21 07:17:50;;;;;;;23.77;6.43;;;;;;;;;;4993725;28;20026;-91
2023/12/21 07:20:20;;;;;;;19.10;6.55;;;;;;;;;;4992044;28;20045;-91
2023/12/21 07:22:45;;;;;;;25.95;7.20;;;;;;;;;;4981321;28;20019;-91
2023/12/21 07:25:10;;;;;;;19.07;6.50;;;;;;;;;;4993608;28;20498;-91
2023/12/21 07:27:35;;;;;;;19.13;6.57;;;;;;;;;;4997894;28;20089;-90
2023/12/21 07:30:01;;;;;;;18.90;6.30;;;;;;;;;;4975214;28;20090;-91
2023/12/21 07:32:26;;;;;;;19.90;6.53;;;;;;;;;;4984742;28;20044;-91
2023/12/21 07:34:51;;;;;;;26.53;7.23;;;;;;;;;;4978633;28;20070;-89
2023/12/21 07:37:16;;;;;;;16.73;6.27;;;;;;;;;;4992850;28;20026;-90
2023/12/21 07:39:42;;;;;;;17.08;6.00;;;;;;;;;;4978533;28;20101;-90
2023/12/21 07:42:07;;;;;;;18.10;6.07;;;;;;;;;;4971451;28;20023;-90
2023/12/21 07:44:35;;;;;;;17.27;5.57;;;;;;;;;;4984018;28;20026;-89
2023/12/21 07:47:00;;;;;;;16.67;5.53;;;;;;;;;;4991292;28;20027;-90
2023/12/21 07:49:26;;;;;;;16.80;5.07;;;;;;;;;;4972044;28;20035;-91
2023/12/21 07:51:51;;;;;;;19.93;5.33;;;;;;;;;;4979720;28;20022;-90
2023/12/21 07:54:16;;;;;;;14.47;6.03;;;;;;;;;;4979297;28;20426;-91
2023/12/21 07:56:41;;;;;;;17.00;5.07;;;;;;;;;;4995764;28;20038;-90
2023/12/21 07:59:07;;;;;;;13.57;5.50;;;;;;;;;;4990759;28;20030;-91
2023/12/21 08:01:33;;;;;;;12.63;5.05;;;;;;;;;;4973114;28;20731;-90
2023/12/21 08:03:59;;;;;;;14.35;5.50;;;;;;;;;;4986735;28;20134;-89
2023/12/21 08:06:26;;;;;;;17.83;5.80;;;;;;;;;;4975897;28;20097;-89
2023/12/21 08:08:54;;;;;;;17.38;5.47;;;;;;;;;;4988581;28;20158;-89
2023/12/21 08:11:20;;;;;;;14.70;5.13;;;;;;;;;;4987234;28;20113;-89
2023/12/21 08:13:45;;;;;;;15.98;5.45;;;;;;;;;;4981850;28;20102;-89
2023/12/21 08:16:10;;;;;;;13.40;4.70;;;;;;;;;;4984707;28;20100;-88
2023/12/21 08:18:36;;;;;;;12.23;4.83;;;;;;;;;;4990226;28;20018;-89
2023/12/21 08:21:01;;;;;;;13.60;5.40;;;;;;;;;;4994202;28;20573;-90
2023/12/21 08:23:26;;;;;;;10.90;4.77;;;;;;;;;;4990540;28;20022;-89
2023/12/21 08:25:51;;;;;;;12.47;5.17;;;;;;;;;;4989720;28;20524;-90
2023/12/21 08:28:17;;;;;;;12.00;5.20;;;;;;;;;;4996243;28;20053;-89
2023/12/21 08:30:43;;;;;;;14.18;4.63;;;;;;;;;;4979402;28;20072;-89
2023/12/21 08:33:08;;;;;;;10.52;5.13;;;;;;;;;;4988641;28;20359;-88
2023/12/21 08:35:33;;;;;;;12.87;4.53;;;;;;;;;;4990021;28;20135;-89
2023/12/21 08:38:00;;;;;;;11.40;4.93;;;;;;;;;;4989441;28;20038;-90
2023/12/21 08:40:25;;;;;;;13.53;4.73;;;;;;;;;;4977927;28;20031;-91
2023/12/21 08:42:51;;;;;;;10.87;4.70;;;;;;;;;;4994236;28;20018;-89
2023/12/21 08:45:16;;;;;;;11.40;5.40;;;;;;;;;;4990646;28;20348;-89
2023/12/21 08:47:41;;;;;;;9.30;5.33;;;;;;;;;;4990011;28;20492;-89
2023/12/21 08:50:10;;;;;;;15.20;5.10;;;;;;;;;;4988940;28;20018;-89
2023/12/21 08:52:36;;;;;;;8.93;5.17;;;;;;;;;;4991854;28;20072;-89
2023/12/21 08:55:02;;;;;;;12.33;4.20;;;;;;;;;;4993748;28;20285;-89
2023/12/21 08:57:27;;;;;;;11.30;4.60;;;;;;;;;;4979602;28;20023;-89
2023/12/21 08:59:52;;;;;;;12.53;4.50;;;;;;;;;;4974682;28;20034;-89
2023/12/21 09:02:18;;;;;;;18.10;4.80;;;;;;;;;;4980917;28;20519;-90
2023/12/21 09:04:43;;;;;;;10.33;4.47;;;;;;;;;;4985036;28;20441;-88
2023/12/21 09:07:08;;;;;;;14.30;5.43;;;;;;;;;;4993679;28;20894;-87
2023/12/21 09:09:34;;;;;;;13.17;4.50;;;;;;;;;;4992224;28;20501;-88
2023/12/21 09:12:00;;;;;;;11.33;4.23;;;;;;;;;;4994238;28;20065;-90
2023/12/21 09:14:25;;;;;;;16.27;5.82;;;;;;;;;;4996963;28;20054;-93
2023/12/21 09:16:52;;;;;;;13.97;5.47;;;;;;;;;;4999028;28;20096;-91
2023/12/21 09:19:18;;;;;;;15.88;4.72;;;;;;;;;;4998675;28;20122;-92
2023/12/21 09:21:43;;;;;;;10.20;4.77;;;;;;;;;;5003075;28;20022;-92
2023/12/21 09:24:08;;;;;;;17.83;5.30;;;;;;;;;;4999127;28;20482;-93
2023/12/21 09:26:33;;;;;;;10.30;3.87;;;;;;;;;;4995858;28;20030;-92
2023/12/21 09:28:59;;;;;;;14.43;5.00;;;;;;;;;;4995269;28;20029;-94
2023/12/21 09:31:25;;;;;;;10.13;4.35;;;;;;;;;;4993293;28;20026;-92
2023/12/21 09:33:50;;;;;;;11.93;4.87;;;;;;;;;;4994320;28;20126;-93
2023/12/21 09:36:15;;;;;;;10.43;3.90;;;;;;;;;;4995312;28;20058;-92
2023/12/21 09:38:41;;;;;;;11.53;4.07;;;;;;;;;;4993153;28;20032;-93
2023/12/21 09:41:07;;;;;;;14.10;3.75;;;;;;;;;;4975951;28;20037;-93
2023/12/21 09:43:33;;;;;;;17.80;4.07;;;;;;;;;;4994607;28;20113;-93
2023/12/21 09:46:00;;;;;;;13.15;3.40;;;;;;;;;;4977575;28;20490;-95
2023/12/21 09:48:25;;;;;;;10.85;3.03;;;;;;;;;;4996099;28;20097;-93
2023/12/21 09:53:59;;;;;;;10.03;2.10;;;;;;;;;;5035149;28;20111;-94
2023/12/21 09:56:26;;;;;;;12.88;2.00;;;;;;;;;;5016648;28;20038;-93
2023/12/21 09:59:05;;;;;;;7.43;2.22;;;;;;;;;;5038704;22;20025;-95
2023/12/21 10:01:36;;;;;;;10.77;1.85;;;;;;;;;;5000104;28;20045;-94
2023/12/21 10:07:59;;;;;;;8.83;1.80;;;;;;;;;;5007326;28;20397;-93
2023/12/21 10:10:18;;;;;;;11.93;1.87;;;;;;;;;;5018105;28;20335;-92
2023/12/21 10:16:21;;;;;;;;;;;;;;;;;;;;;
2023/12/21 10:21:35;;;;;;;11.77;1.80;;;;;;;;;;5797914;23;20045;-96
2023/12/21 10:24:08;;;;;;;17.87;2.00;;;;;;;;;;5024400;23;20018;-92
2023/12/21 10:27:09;;;;;;;14.68;1.80;;;;;;;;;;5003684;28;20049;-92
2023/12/21 10:29:34;;;;;;;11.57;1.73;;;;;;;;;;5011959;28;20030;-93
2023/12/21 10:32:03;;;;;;;6.37;1.67;;;;;;;;;;5011176;28;20014;-93
2023/12/21 10:34:28;;;;;;;11.57;1.45;;;;;;;;;;5019237;28;20033;-96
2023/12/21 10:37:01;;;;;;;11.70;1.60;;;;;;;;;;4995533;28;20076;-94
2023/12/21 10:39:41;;;;;;;8.68;1.20;;;;;;;;;;5016871;28;20481;-94
2023/12/21 10:42:07;;;;;;;8.60;1.30;;;;;;;;;;5024018;28;20030;-94
2023/12/21 10:44:32;;;;;;;12.87;1.40;;;;;;;;;;5010897;28;20022;-96
2023/12/21 10:46:58;;;;;;;6.97;1.10;;;;;;;;;;5018938;28;20083;-94
2023/12/21 10:49:24;;;;;;;8.55;1.10;;;;;;;;;;5013280;28;20470;-91
2023/12/21 10:51:56;;;;;;;9.63;1.17;;;;;;;;;;4996012;28;20033;-92
2023/12/21 10:54:23;;;;;;;13.40;1.50;;;;;;;;;;4994814;28;20025;-92
2023/12/21 10:56:48;;;;;;;10.02;1.33;;;;;;;;;;5013192;28;20034;-90
2023/12/21 10:59:14;;;;;;;12.13;1.37;;;;;;;;;;5012042;28;20014;-91
2023/12/21 11:01:51;;;;;;;10.10;1.70;;;;;;;;;;5012526;28;20110;-93
2023/12/21 11:04:17;;;;;;;11.27;1.50;;;;;;;;;;5012380;28;20026;-90
2023/12/21 11:06:43;;;;;;;8.98;1.63;;;;;;;;;;5012817;28;20100;-90
2023/12/21 11:09:09;;;;;;;12.77;1.48;;;;;;;;;;5005102;23;20134;-90
2023/12/21 11:11:38;;;;;;;9.67;1.17;;;;;;;;;;4985464;28;20014;-89
2023/12/21 11:17:09;;;;;;;6.82;1.27;;;;;;;;;;4992117;28;20124;-91
2023/12/21 11:19:38;;;;;;;8.95;1.30;;;;;;;;;;5034284;23;20045;-91
2023/12/21 11:28:09;;;;;;;9.00;1.10;;;;;;;;;;5012471;28;20271;-95
2023/12/21 11:31:00;;;;;;;6.20;1.13;;;;;;;;;;5064450;22;20132;-94
2023/12/21 11:33:54;;;;;;;5.60;1.33;;;;;;;;;;5004903;28;20010;-94
2023/12/21 11:36:33;;;;;;;7.57;1.40;;;;;;;;;;5024975;28;20337;-93
2023/12/21 11:39:28;;;;;;;7.97;1.20;;;;;;;;;;5009920;28;20028;-94
2023/12/21 11:42:12;;;;;;;14.25;1.80;;;;;;;;;;4951287;28;20117;-92
2023/12/21 11:44:53;;;;;;;9.48;1.52;;;;;;;;;;4952185;29;20035;-91
2023/12/21 11:47:44;;;;;;;7.45;1.30;;;;;;;;;;4972472;28;20038;-94
2023/12/21 11:50:18;;;;;;;10.30;2.10;;;;;;;;;;4994669;28;20065;-92
2023/12/21 11:52:44;;;;;;;6.27;1.60;;;;;;;;;;5015614;28;20284;-94
2023/12/21 11:55:57;;;;;;;;;;;;;;;;;;;;;
2023/12/21 11:58:23;;;;;;;6.88;1.35;;;;;;;;;;4954972;29;20137;-93
2023/12/21 12:00:49;;;;;;;8.77;1.40;;;;;;;;;;5008373;28;20042;-93
2023/12/21 12:03:15;;;;;;;9.48;1.65;;;;;;;;;;4997976;28;20010;-92
2023/12/21 12:05:41;;;;;;;5.97;1.50;;;;;;;;;;4996995;28;20491;-91
2023/12/21 12:08:06;;;;;;;6.60;1.40;;;;;;;;;;5013577;28;20053;-90
2023/12/21 12:10:32;;;;;;;8.10;1.40;;;;;;;;;;4994340;28;20598;-92
2023/12/21 12:12:58;;;;;;;4.30;1.43;;;;;;;;;;5012837;28;20037;-90
2023/12/21 12:15:23;;;;;;;4.72;1.50;;;;;;;;;;4993134;28;20026;-92
2023/12/21 12:17:48;;;;;;;7.23;1.50;;;;;;;;;;5003751;28;20029;-93
2023/12/21 12:20:14;;;;;;;6.93;1.33;;;;;;;;;;5009306;28;20088;-92
2023/12/21 12:22:40;;;;;;;9.23;1.85;;;;;;;;;;5010881;28;20030;-91
2023/12/21 12:25:06;;;;;;;8.57;1.40;;;;;;;;;;5019559;28;20024;-92
2023/12/21 12:27:32;;;;;;;10.90;1.40;;;;;;;;;;5011678;28;20032;-93
2023/12/21 12:30:13;;;;;;;5.53;1.20;;;;;;;;;;5032377;23;20049;-92
2023/12/21 12:32:39;;;;;;;5.80;1.35;;;;;;;;;;5005709;28;20080;-93
2023/12/21 12:35:11;;;;;;;6.43;1.03;;;;;;;;;;5024776;28;20034;-91
2023/12/21 12:37:36;;;;;;;5.13;1.23;;;;;;;;;;5035564;28;20116;-93
2023/12/21 12:40:04;;;;;;;6.13;1.30;;;;;;;;;;5029525;28;20089;-91
2023/12/21 12:42:42;;;;;;;7.25;1.60;;;;;;;;;;4995652;28;20026;-93
2023/12/21 12:45:07;;;;;;;10.05;1.63;;;;;;;;;;5022053;28;20113;-92
2023/12/21 12:47:34;;;;;;;12.00;1.20;;;;;;;;;;5014647;28;20517;-93
2023/12/21 12:50:00;;;;;;;9.95;1.38;;;;;;;;;;5012455;28;20516;-93
2023/12/21 12:52:26;;;;;;;6.32;1.30;;;;;;;;;;4989234;28;20048;-94
2023/12/21 12:54:57;;;;;;;7.07;1.23;;;;;;;;;;4990159;28;20219;-91
2023/12/21 12:57:26;;;;;;;9.75;1.80;;;;;;;;;;5017751;28;20030;-93
2023/12/21 12:59:51;;;;;;;8.73;1.90;;;;;;;;;;5007034;28;20006;-94
2023/12/21 13:02:16;;;;;;;9.10;1.80;;;;;;;;;;5022664;28;20025;-96
2023/12/21 13:04:42;;;;;;;9.97;1.60;;;;;;;;;;5001416;28;20010;-96
2023/12/21 13:07:07;;;;;;;11.23;2.47;;;;;;;;;;5021607;28;20029;-94
2023/12/21 13:09:34;;;;;;;7.93;1.77;;;;;;;;;;4996399;28;20022;-93
2023/12/21 13:12:01;;;;;;;10.75;2.08;;;;;;;;;;5008513;28;20038;-96
2023/12/21 13:14:26;;;;;;;10.00;1.70;;;;;;;;;;5017373;28;20037;-96
2023/12/21 13:16:51;;;;;;;9.33;1.50;;;;;;;;;;5018207;28;20482;-96
2023/12/21 13:19:29;;;;;;;9.60;2.13;;;;;;;;;;5020905;28;20026;-96
2023/12/21 13:22:22;;;;;;;13.10;1.70;;;;;;;;;;5006753;28;20030;-96
2023/12/21 13:24:57;;;;;;;12.80;1.70;;;;;;;;;;5000685;28;20304;-96
2023/12/21 13:27:29;;;;;;;16.85;1.90;;;;;;;;;;5030580;28;20076;-96
2023/12/21 13:30:23;;;;;;;7.32;1.40;;;;;;;;;;5023337;28;20126;-96
2023/12/21 13:32:49;;;;;;;13.63;1.60;;;;;;;;;;5002211;28;20466;-94
2023/12/21 13:35:23;;;;;;;9.63;1.70;;;;;;;;;;5001747;28;20025;-96
2023/12/21 13:37:48;;;;;;;9.10;1.50;;;;;;;;;;5016463;28;20433;-91
2023/12/21 13:40:14;;;;;;;15.63;1.60;;;;;;;;;;5014910;28;20022;-94
2023/12/21 13:42:39;;;;;;;10.57;1.57;;;;;;;;;;5017811;28;20106;-95
2023/12/21 13:45:09;;;;;;;10.80;1.70;;;;;;;;;;5019907;28;20029;-93
2023/12/21 13:47:35;;;;;;;14.75;1.85;;;;;;;;;;4991539;28;20026;-92
2023/12/21 13:50:01;;;;;;;9.38;1.40;;;;;;;;;;5009810;28;20018;-92
2023/12/21 13:52:26;;;;;;;13.13;1.60;;;;;;;;;;4995080;28;20014;-91
2023/12/21 13:54:51;;;;;;;12.40;1.50;;;;;;;;;;4991059;28;20105;-93
2023/12/21 13:57:18;;;;;;;9.97;1.33;;;;;;;;;;5010624;28;20039;-91
2023/12/21 13:59:43;;;;;;;12.98;1.40;;;;;;;;;;4994855;28;20390;-91
2023/12/21 14:02:08;;;;;;;15.43;2.10;;;;;;;;;;5009963;28;20033;-92
2023/12/21 14:04:34;;;;;;;11.23;1.43;;;;;;;;;;5005121;28;20287;-92
2023/12/21 14:07:00;;;;;;;7.83;1.13;;;;;;;;;;4994901;28;20480;-89
2023/12/21 14:09:25;;;;;;;13.43;1.67;;;;;;;;;;5010634;28;20018;-91
2023/12/21 14:11:51;;;;;;;10.17;1.43;;;;;;;;;;4989651;28;20157;-91
2023/12/21 14:14:16;;;;;;;11.03;1.60;;;;;;;;;;4994654;28;20040;-90
2023/12/21 14:16:42;;;;;;;11.33;1.30;;;;;;;;;;5013198;28;20058;-90
2023/12/21 14:19:07;;;;;;;11.02;1.25;;;;;;;;;;5023796;28;20073;-91
2023/12/21 14:21:32;;;;;;;9.00;1.50;;;;;;;;;;5015530;28;20045;-91
2023/12/21 14:23:57;;;;;;;12.97;1.67;;;;;;;;;;4997626;28;20442;-90
2023/12/21 14:26:23;;;;;;;12.40;1.37;;;;;;;;;;5015079;28;20026;-91
2023/12/21 14:28:48;;;;;;;13.45;2.08;;;;;;;;;;5014559;28;20055;-91
2023/12/21 14:31:13;;;;;;;9.20;1.70;;;;;;;;;;5022568;28;20028;-91
2023/12/21 14:33:39;;;;;;;9.53;1.40;;;;;;;;;;5021965;28;20026;-91
2023/12/21 14:36:04;;;;;;;9.80;1.50;;;;;;;;;;5002218;28;20030;-90
2023/12/21 14:38:29;;;;;;;9.60;1.30;;;;;;;;;;5017475;28;20022;-90
2023/12/21 14:40:55;;;;;;;8.23;1.50;;;;;;;;;;5015076;28;20025;-91
2023/12/21 14:43:20;;;;;;;12.03;1.60;;;;;;;;;;4999857;28;20433;-89
2023/12/21 14:45:45;;;;;;;13.57;1.80;;;;;;;;;;5012558;28;20451;-89
2023/12/21 14:48:12;;;;;;;17.13;1.90;;;;;;;;;;5022463;28;20018;-93
2023/12/21 14:50:37;;;;;;;12.83;1.43;;;;;;;;;;5000910;28;20654;-91
2023/12/21 14:53:03;;;;;;;10.07;1.93;;;;;;;;;;5017554;28;20018;-90
2023/12/21 14:55:28;;;;;;;11.60;2.07;;;;;;;;;;4995233;28;20911;-89
2023/12/21 14:57:53;;;;;;;12.53;1.80;;;;;;;;;;5013930;28;20049;-91
2023/12/21 15:00:20;;;;;;;10.83;1.13;;;;;;;;;;5011887;28;20678;-90
2023/12/21 15:02:45;;;;;;;13.23;2.13;;;;;;;;;;5012748;28;20026;-90
2023/12/21 15:05:10;;;;;;;16.60;2.10;;;;;;;;;;4994039;28;20424;-91
2023/12/21 15:07:36;;;;;;;16.00;2.10;;;;;;;;;;5010723;28;20033;-90